Time;durP1;ratioP1;P1;durP2;ratioP2;P2;SDS_P1;SDS_P2;PMS_P1;PMS_P2;Temp;Humidity;BMP_temperature;BMP_pressure;BME280_temperature;BME280_humidity;BME280_pressure;Samples;Min_cycle;Max_cycle;Signal;HPM_P1;HPM_P2
2023/01/06 00:02:19;;;;;;;;;;;9.20;99.90;;;;;;4846299;29;20122;-71
2023/01/06 00:04:44;;;;;;;;;;;9.20;99.90;;;;;;4845569;29;19959;-70
2023/01/06 00:07:10;;;;;;;;;;;9.30;99.90;;;;;;4845922;29;19969;-70
2023/01/06 00:09:36;;;;;;;;;;;9.30;99.90;;;;;;4864105;29;19924;-70
2023/01/06 00:12:02;;;;;;;;;;;9.30;99.90;;;;;;4860713;29;19928;-70
2023/01/06 00:14:28;;;;;;;;;;;9.30;99.90;;;;;;4865139;29;19924;-70
2023/01/06 00:16:54;;;;;;;;;;;9.30;99.90;;;;;;4865064;29;20046;-70
2023/01/06 00:19:19;;;;;;;;;;;9.30;99.90;;;;;;4865108;29;19923;-70
2023/01/06 00:21:45;;;;;;;;;;;9.30;99.90;;;;;;4837386;29;19975;-72
2023/01/06 00:24:10;;;;;;;;;;;9.30;99.90;;;;;;4864804;29;19924;-71
2023/01/06 00:26:36;;;;;;;;;;;9.30;99.90;;;;;;4860888;29;19924;-70
2023/01/06 00:29:02;;;;;;;;;;;9.20;99.90;;;;;;4863977;29;19924;-70
2023/01/06 00:31:28;;;;;;;;;;;9.20;99.90;;;;;;4865600;29;19924;-70
2023/01/06 00:33:56;;;;;;;;;;;9.20;99.90;;;;;;4865000;29;19927;-70
2023/01/06 00:36:22;;;;;;;;;;;9.20;99.90;;;;;;4849772;29;20471;-70
2023/01/06 00:38:48;;;;;;;;;;;9.30;99.90;;;;;;4850045;29;19931;-70
2023/01/06 00:42:14;;;;;;;;;;;9.30;99.90;;;;;;4865238;29;19932;-70
2023/01/06 00:44:09;;;;;;;;;;;9.30;99.90;;;;;;4854697;29;19930;-70
2023/01/06 00:46:35;;;;;;;;;;;9.30;99.90;;;;;;4850324;29;19928;-70
2023/01/06 00:49:02;;;;;;;;;;;9.30;99.90;;;;;;4864526;29;19965;-70
2023/01/06 00:51:27;;;;;;;;;;;9.30;99.90;;;;;;4850427;29;20274;-70
2023/01/06 00:53:53;;;;;;;;;;;9.30;99.90;;;;;;4865207;29;19952;-71
2023/01/06 00:56:19;;;;;;;;;;;9.30;99.90;;;;;;4864682;29;19975;-70
2023/01/06 00:58:44;;;;;;;;;;;9.30;99.90;;;;;;4864154;29;19939;-70
2023/01/06 01:01:10;;;;;;;;;;;9.30;99.90;;;;;;4861874;29;19924;-70
2023/01/06 01:03:36;;;;;;;;;;;9.20;99.90;;;;;;4863307;29;20010;-70
2023/01/06 01:06:03;;;;;;;;;;;9.20;99.90;;;;;;4856362;29;19924;-70
2023/01/06 01:08:29;;;;;;;;;;;9.20;99.90;;;;;;4858538;29;20399;-70
2023/01/06 01:11:00;;;;;;;;;;;9.20;99.90;;;;;;4855912;29;19928;-70
2023/01/06 01:13:26;;;;;;;;;;;9.20;99.90;;;;;;4862916;29;19984;-70
2023/01/06 01:15:52;;;;;;;;;;;9.20;99.90;;;;;;4864660;29;19928;-70
2023/01/06 01:18:17;;;;;;;;;;;9.20;99.90;;;;;;4860454;29;20121;-70
2023/01/06 01:20:44;;;;;;;;;;;9.20;99.90;;;;;;4856469;29;19987;-70
2023/01/06 01:23:10;;;;;;;;;;;9.20;99.90;;;;;;4864186;29;19924;-70
2023/01/06 01:25:35;;;;;;;;;;;9.20;99.90;;;;;;4863593;29;19927;-70
2023/01/06 01:28:01;;;;;;;;;;;9.20;99.90;;;;;;4845130;29;20342;-70
2023/01/06 01:30:26;;;;;;;;;;;9.20;99.90;;;;;;4855580;29;19924;-70
2023/01/06 01:32:52;;;;;;;;;;;9.10;99.90;;;;;;4847851;29;20335;-70
2023/01/06 01:35:17;;;;;;;;;;;9.10;99.90;;;;;;4863279;29;19935;-70
2023/01/06 01:37:43;;;;;;;;;;;9.00;99.90;;;;;;4863929;29;19927;-70
2023/01/06 01:40:09;;;;;;;;;;;9.00;99.90;;;;;;4864190;29;19924;-70
2023/01/06 01:42:35;;;;;;;;;;;9.00;99.90;;;;;;4848519;29;19932;-70
2023/01/06 01:45:04;;;;;;;;;;;9.00;99.90;;;;;;4848162;29;19931;-70
2023/01/06 01:47:36;;;;;;;;;;;9.00;99.90;;;;;;4863532;29;19924;-70
2023/01/06 01:50:21;;;;;;;;;;;9.00;99.90;;;;;;4862796;29;19924;-70
2023/01/06 01:52:48;;;;;;;;;;;9.00;99.90;;;;;;4862781;29;19927;-70
2023/01/06 01:55:15;;;;;;;;;;;9.00;99.90;;;;;;4863092;29;20591;-70
2023/01/06 01:57:50;;;;;;;;;;;9.00;99.90;;;;;;4845260;29;19924;-70
2023/01/06 02:00:16;;;;;;;;;;;9.00;99.90;;;;;;4862495;29;19932;-70
2023/01/06 02:02:42;;;;;;;;;;;9.00;99.90;;;;;;4863097;29;19975;-71
2023/01/06 02:05:10;;;;;;;;;;;9.00;99.90;;;;;;4846588;29;19928;-71
2023/01/06 02:07:35;;;;;;;;;;;9.00;99.90;;;;;;4861502;29;20007;-71
2023/01/06 02:10:10;;;;;;;;;;;9.00;99.90;;;;;;4847363;29;19962;-72
2023/01/06 02:12:35;;;;;;;;;;;8.90;99.90;;;;;;4864344;29;20416;-72
2023/01/06 02:15:01;;;;;;;;;;;9.00;99.90;;;;;;4842317;29;19991;-73
2023/01/06 02:17:26;;;;;;;;;;;9.00;99.90;;;;;;4856292;29;20018;-71
2023/01/06 02:19:55;;;;;;;;;;;9.00;99.90;;;;;;4858909;29;19966;-71
2023/01/06 02:22:24;;;;;;;;;;;9.00;99.90;;;;;;4862319;29;19927;-71
2023/01/06 02:25:06;;;;;;;;;;;9.10;99.90;;;;;;4846363;29;20023;-70
2023/01/06 02:27:31;;;;;;;;;;;9.10;99.90;;;;;;4846762;29;19930;-70
2023/01/06 02:30:09;;;;;;;;;;;9.10;99.90;;;;;;4860404;29;19923;-70
2023/01/06 02:32:52;;;;;;;;;;;9.10;99.90;;;;;;4859522;29;19936;-70
2023/01/06 02:35:18;;;;;;;;;;;9.20;99.90;;;;;;4840930;29;20289;-70
2023/01/06 02:37:54;;;;;;;;;;;9.20;99.90;;;;;;4859213;29;19934;-70
2023/01/06 02:40:20;;;;;;;;;;;9.20;99.90;;;;;;4860786;29;19974;-70
2023/01/06 02:42:45;;;;;;;;;;;9.20;99.90;;;;;;4862541;29;20022;-70
2023/01/06 02:45:17;;;;;;;;;;;9.10;99.90;;;;;;4861040;29;19949;-71
2023/01/06 02:47:49;;;;;;;;;;;9.10;99.90;;;;;;4875522;29;19956;-71
2023/01/06 02:50:17;;;;;;;;;;;9.20;99.90;;;;;;4878140;29;19924;-71
2023/01/06 02:52:56;;;;;;;;;;;9.10;99.90;;;;;;4877238;29;19928;-70
2023/01/06 02:55:32;;;;;;;;;;;9.10;99.90;;;;;;4870805;29;19934;-70
2023/01/06 02:58:04;;;;;;;;;;;9.10;99.90;;;;;;4862032;29;19927;-70
2023/01/06 03:00:33;;;;;;;;;;;9.10;99.90;;;;;;4866685;29;19928;-70
2023/01/06 03:03:02;;;;;;;;;;;9.10;99.90;;;;;;4846964;29;20314;-70
2023/01/06 03:05:28;;;;;;;;;;;9.10;99.90;;;;;;4849926;29;20059;-70
2023/01/06 03:07:56;;;;;;;;;;;9.10;99.90;;;;;;4856886;29;19936;-70
2023/01/06 03:10:24;;;;;;;;;;;9.10;99.90;;;;;;4839982;29;19991;-70
2023/01/06 03:12:55;;;;;;;;;;;9.00;99.90;;;;;;4858727;29;20022;-71
2023/01/06 03:15:22;;;;;;;;;;;9.00;99.90;;;;;;4840085;29;19967;-71
2023/01/06 03:17:47;;;;;;;;;;;9.10;99.90;;;;;;4853913;29;19956;-71
2023/01/06 03:20:13;;;;;;;;;;;9.10;99.90;;;;;;4844329;29;20377;-71
2023/01/06 03:22:39;;;;;;;;;;;9.10;99.90;;;;;;4832888;29;19977;-71
2023/01/06 03:25:06;;;;;;;;;;;9.10;99.90;;;;;;4847023;29;19939;-71
2023/01/06 03:27:31;;;;;;;;;;;9.10;99.90;;;;;;4857425;29;19924;-71
2023/01/06 03:29:57;;;;;;;;;;;9.10;99.90;;;;;;4842917;29;19931;-70
2023/01/06 03:32:30;;;;;;;;;;;9.10;99.90;;;;;;4873092;29;20318;-70
2023/01/06 03:35:16;;;;;;;;;;;9.20;99.90;;;;;;4841793;29;19924;-70
2023/01/06 03:37:46;;;;;;;;;;;9.20;99.90;;;;;;4831442;29;19979;-70
2023/01/06 03:40:17;;;;;;;;;;;9.20;99.90;;;;;;4858671;29;19925;-70
2023/01/06 03:45:31;;;;;;;;;;;9.20;99.90;;;;;;4860771;29;20020;-70
2023/01/06 03:48:04;;;;;;;;;;;9.20;99.90;;;;;;4835465;29;20338;-71
2023/01/06 03:50:39;;;;;;;;;;;9.20;99.90;;;;;;4861769;29;19924;-71
2023/01/06 03:53:20;;;;;;;;;;;9.30;99.90;;;;;;4862470;29;20415;-71
2023/01/06 03:55:47;;;;;;;;;;;9.30;99.90;;;;;;4859868;29;19932;-71
2023/01/06 03:58:13;;;;;;;;;;;9.30;99.90;;;;;;4852764;29;19989;-71
2023/01/06 04:00:40;;;;;;;;;;;9.30;99.90;;;;;;4842457;29;19924;-71
2023/01/06 04:03:07;;;;;;;;;;;9.30;99.90;;;;;;4842959;29;19972;-71
2023/01/06 04:05:32;;;;;;;;;;;9.30;99.90;;;;;;4846323;29;20661;-70
2023/01/06 04:07:58;;;;;;;;;;;9.30;99.90;;;;;;4845624;29;19932;-70
2023/01/06 04:10:24;;;;;;;;;;;9.30;99.90;;;;;;4846032;29;20209;-70
2023/01/06 04:12:50;;;;;;;;;;;9.30;99.90;;;;;;4846108;29;19935;-70
2023/01/06 04:15:17;;;;;;;;;;;9.30;99.90;;;;;;4828471;29;19929;-70
2023/01/06 04:17:43;;;;;;;;;;;9.40;99.90;;;;;;4843338;29;19948;-70
2023/01/06 04:20:11;;;;;;;;;;;9.40;99.90;;;;;;4844631;29;19924;-70
2023/01/06 04:22:37;;;;;;;;;;;9.40;99.90;;;;;;4860878;29;19940;-70
2023/01/06 04:25:03;;;;;;;;;;;9.40;99.90;;;;;;4860881;29;19924;-70
2023/01/06 04:27:28;;;;;;;;;;;9.40;99.90;;;;;;4861733;29;19928;-70
2023/01/06 04:29:54;;;;;;;;;;;9.50;99.90;;;;;;4828831;29;19928;-70
2023/01/06 04:32:20;;;;;;;;;;;9.50;99.90;;;;;;4861544;29;20346;-70
2023/01/06 04:34:45;;;;;;;;;;;9.50;99.90;;;;;;4856581;29;19924;-71
2023/01/06 04:37:11;;;;;;;;;;;9.50;99.90;;;;;;4839764;29;19924;-70
2023/01/06 04:39:37;;;;;;;;;;;9.50;99.90;;;;;;4844754;29;20000;-70
2023/01/06 04:42:02;;;;;;;;;;;9.50;99.90;;;;;;4860884;29;19953;-70
2023/01/06 04:44:28;;;;;;;;;;;9.50;99.90;;;;;;4859744;29;19928;-71
2023/01/06 04:46:54;;;;;;;;;;;9.50;99.90;;;;;;4861192;29;20039;-70
2023/01/06 04:49:19;;;;;;;;;;;9.50;99.90;;;;;;4857970;29;19924;-71
2023/01/06 04:51:45;;;;;;;;;;;9.50;99.90;;;;;;4861216;29;19979;-71
2023/01/06 04:54:10;;;;;;;;;;;9.50;99.90;;;;;;4845325;29;20464;-70
2023/01/06 04:56:36;;;;;;;;;;;9.50;99.90;;;;;;4845959;29;19928;-70
2023/01/06 04:59:02;;;;;;;;;;;9.50;99.90;;;;;;4846101;29;19924;-71
2023/01/06 05:01:27;;;;;;;;;;;9.50;99.90;;;;;;4846274;29;19924;-70
2023/01/06 05:03:53;;;;;;;;;;;9.50;99.90;;;;;;4860597;29;19974;-70
2023/01/06 05:06:19;;;;;;;;;;;9.50;99.90;;;;;;4861834;29;20401;-70
2023/01/06 05:08:44;;;;;;;;;;;9.50;99.90;;;;;;4859350;29;20142;-71
2023/01/06 05:11:15;;;;;;;;;;;9.50;99.90;;;;;;4833280;29;19924;-70
2023/01/06 05:13:41;;;;;;;;;;;9.50;99.90;;;;;;4863564;29;19928;-71
2023/01/06 05:16:11;;;;;;;;;;;9.50;99.90;;;;;;4864349;29;19952;-71
2023/01/06 05:18:37;;;;;;;;;;;9.40;99.90;;;;;;4863539;29;19923;-70
2023/01/06 05:21:02;;;;;;;;;;;9.40;99.90;;;;;;4863578;29;19923;-71
2023/01/06 05:23:28;;;;;;;;;;;9.40;99.90;;;;;;4864021;29;20008;-73
2023/01/06 05:25:54;;;;;;;;;;;9.30;99.90;;;;;;4852219;29;19979;-70
2023/01/06 05:28:20;;;;;;;;;;;9.30;99.90;;;;;;4863830;29;19924;-71
2023/01/06 05:30:45;;;;;;;;;;;9.20;99.90;;;;;;4863808;29;20513;-70
2023/01/06 05:33:11;;;;;;;;;;;9.10;99.90;;;;;;4863201;29;19939;-70
2023/01/06 05:35:36;;;;;;;;;;;9.10;99.90;;;;;;4847510;29;20051;-70
2023/01/06 05:38:02;;;;;;;;;;;9.10;99.90;;;;;;4862045;29;20030;-70
2023/01/06 05:40:28;;;;;;;;;;;9.00;99.90;;;;;;4860904;29;19930;-70
2023/01/06 05:42:54;;;;;;;;;;;9.00;99.90;;;;;;4859963;29;20010;-70
2023/01/06 05:45:20;;;;;;;;;;;9.00;99.90;;;;;;4859527;29;20381;-70
2023/01/06 05:47:46;;;;;;;;;;;8.90;99.90;;;;;;4858577;29;19924;-70
2023/01/06 05:50:11;;;;;;;;;;;8.90;99.90;;;;;;4859568;29;19931;-70
2023/01/06 05:52:37;;;;;;;;;;;8.90;99.90;;;;;;4843210;29;19935;-70
2023/01/06 05:55:03;;;;;;;;;;;8.90;99.90;;;;;;4843598;29;19939;-70
2023/01/06 05:57:31;;;;;;;;;;;8.90;99.90;;;;;;4828483;29;20062;-70
2023/01/06 05:59:56;;;;;;;;;;;8.90;99.90;;;;;;4859097;29;20068;-70
2023/01/06 06:02:22;;;;;;;;;;;8.90;99.90;;;;;;4858911;29;20014;-73
2023/01/06 06:04:47;;;;;;;;;;;8.90;99.90;;;;;;4828364;29;19942;-72
2023/01/06 06:07:13;;;;;;;;;;;8.80;99.90;;;;;;4858064;29;19932;-72
2023/01/06 06:09:39;;;;;;;;;;;8.80;99.90;;;;;;4859324;29;19928;-72
2023/01/06 06:12:05;;;;;;;;;;;8.80;99.90;;;;;;4858110;29;19936;-72
2023/01/06 06:14:31;;;;;;;;;;;8.80;99.90;;;;;;4843715;29;20018;-71
2023/01/06 06:16:57;;;;;;;;;;;8.80;99.90;;;;;;4842837;29;20320;-70
2023/01/06 06:19:23;;;;;;;;;;;8.80;99.90;;;;;;4844113;29;20451;-70
2023/01/06 06:21:48;;;;;;;;;;;8.80;99.90;;;;;;4855942;29;19924;-70
2023/01/06 06:24:14;;;;;;;;;;;8.80;99.90;;;;;;4858484;29;19923;-70
2023/01/06 06:26:39;;;;;;;;;;;8.80;99.90;;;;;;4853960;29;19923;-70
2023/01/06 06:29:06;;;;;;;;;;;8.80;99.90;;;;;;4847753;29;19979;-70
2023/01/06 06:31:31;;;;;;;;;;;8.70;99.90;;;;;;4852979;29;19928;-72
2023/01/06 06:33:58;;;;;;;;;;;8.80;99.90;;;;;;4851975;29;20427;-73
2023/01/06 06:36:24;;;;;;;;;;;8.80;99.90;;;;;;4843399;29;19924;-73
2023/01/06 06:38:50;;;;;;;;;;;8.80;99.90;;;;;;4847042;29;20420;-73
2023/01/06 06:41:16;;;;;;;;;;;8.80;99.90;;;;;;4840054;29;20020;-73
2023/01/06 06:43:42;;;;;;;;;;;8.90;99.90;;;;;;4867521;29;19928;-73
2023/01/06 06:46:08;;;;;;;;;;;8.90;99.90;;;;;;4845982;29;20007;-72
2023/01/06 06:48:34;;;;;;;;;;;8.90;99.90;;;;;;4831795;29;19928;-72
2023/01/06 06:51:00;;;;;;;;;;;9.00;99.90;;;;;;4858455;29;19986;-70
2023/01/06 06:53:26;;;;;;;;;;;9.00;99.90;;;;;;4857017;29;19932;-70
2023/01/06 06:55:52;;;;;;;;;;;9.00;99.90;;;;;;4858859;29;19928;-70
2023/01/06 06:58:18;;;;;;;;;;;9.00;99.90;;;;;;4858505;29;19927;-70
2023/01/06 07:00:44;;;;;;;;;;;9.00;99.90;;;;;;4843413;29;19935;-73
2023/01/06 07:03:09;;;;;;;;;;;9.00;99.90;;;;;;4858692;29;20431;-72
2023/01/06 07:05:35;;;;;;;;;;;9.10;99.90;;;;;;4858289;29;19980;-72
2023/01/06 07:08:01;;;;;;;;;;;9.10;99.90;;;;;;4859079;29;20286;-72
2023/01/06 07:10:26;;;;;;;;;;;9.10;99.90;;;;;;4855896;29;20015;-72
2023/01/06 07:12:52;;;;;;;;;;;9.00;99.90;;;;;;4855704;29;19995;-72
2023/01/06 07:15:17;;;;;;;;;;;8.90;99.90;;;;;;4845298;29;19939;-72
2023/01/06 07:17:43;;;;;;;;;;;8.80;99.90;;;;;;4842766;29;19928;-72
2023/01/06 07:20:09;;;;;;;;;;;8.60;99.90;;;;;;4852426;29;19932;-72
2023/01/06 07:22:38;;;;;;;;;;;8.40;99.90;;;;;;4839929;29;20068;-72
2023/01/06 07:25:08;;;;;;;;;;;8.20;99.90;;;;;;4839760;29;19928;-72
2023/01/06 07:27:34;;;;;;;;;;;8.00;99.90;;;;;;4837786;29;20669;-72
2023/01/06 07:29:59;;;;;;;;;;;7.90;99.90;;;;;;4831985;29;19928;-72
2023/01/06 07:32:25;;;;;;;;;;;7.70;99.90;;;;;;4842973;29;19980;-72
2023/01/06 07:34:50;;;;;;;;;;;7.50;99.90;;;;;;4858886;29;19931;-72
2023/01/06 07:37:16;;;;;;;;;;;7.40;99.90;;;;;;4842184;29;19924;-72
2023/01/06 07:39:42;;;;;;;;;;;7.20;99.90;;;;;;4858104;29;20003;-72
2023/01/06 07:42:08;;;;;;;;;;;7.10;99.90;;;;;;4824496;29;19989;-72
2023/01/06 07:44:33;;;;;;;;;;;6.90;99.90;;;;;;4844846;29;19947;-72
2023/01/06 07:46:59;;;;;;;;;;;6.80;99.90;;;;;;4828649;29;20412;-72
2023/01/06 07:49:24;;;;;;;;;;;6.70;99.90;;;;;;4816088;29;19932;-72
2023/01/06 07:51:50;;;;;;;;;;;6.60;99.90;;;;;;4860088;29;19924;-72
2023/01/06 07:54:16;;;;;;;;;;;6.50;99.90;;;;;;4848197;29;20429;-72
2023/01/06 07:56:42;;;;;;;;;;;6.40;99.90;;;;;;4855977;29;19924;-72
2023/01/06 07:59:08;;;;;;;;;;;6.30;99.90;;;;;;4845078;29;19935;-72
2023/01/06 08:01:34;;;;;;;;;;;6.20;99.90;;;;;;4840965;29;19928;-72
2023/01/06 08:04:00;;;;;;;;;;;6.20;99.90;;;;;;4825141;29;19924;-72
2023/01/06 08:06:25;;;;;;;;;;;6.10;99.90;;;;;;4858174;29;19954;-72
2023/01/06 08:08:51;;;;;;;;;;;6.10;99.90;;;;;;4842317;29;19928;-72
2023/01/06 08:11:18;;;;;;;;;;;6.10;99.90;;;;;;4841274;29;20201;-72
2023/01/06 08:13:44;;;;;;;;;;;6.10;99.90;;;;;;4847909;29;20003;-72
2023/01/06 08:16:10;;;;;;;;;;;6.10;99.90;;;;;;4860239;29;19924;-72
2023/01/06 08:18:36;;;;;;;;;;;6.10;99.90;;;;;;4857402;29;19928;-72
2023/01/06 08:21:02;;;;;;;;;;;6.10;99.90;;;;;;4860321;29;19935;-72
2023/01/06 08:23:28;;;;;;;;;;;6.10;99.90;;;;;;4843425;29;19935;-72
2023/01/06 08:26:08;;;;;;;;;;;6.10;99.90;;;;;;4857668;29;19928;-72
2023/01/06 08:28:33;;;;;;;;;;;6.10;99.90;;;;;;4834276;29;19928;-72
2023/01/06 08:30:59;;;;;;;;;;;6.10;99.90;;;;;;4862095;29;20472;-72
2023/01/06 08:33:25;;;;;;;;;;;6.10;99.90;;;;;;4838219;29;20042;-72
2023/01/06 08:36:00;;;;;;;;;;;6.10;99.90;;;;;;4845544;29;19935;-72
2023/01/06 08:38:26;;;;;;;;;;;6.10;99.90;;;;;;4856757;29;19927;-72
2023/01/06 08:40:52;;;;;;;;;;;6.10;99.90;;;;;;4848381;29;19935;-72
2023/01/06 08:43:18;;;;;;;;;;;6.20;99.90;;;;;;4848347;29;19985;-72
2023/01/06 08:45:44;;;;;;;;;;;6.20;99.90;;;;;;4863313;29;19924;-73
2023/01/06 08:48:09;;;;;;;;;;;6.30;99.90;;;;;;4863641;29;20003;-73
2023/01/06 08:50:37;;;;;;;;;;;6.40;99.90;;;;;;4861692;29;19932;-73
2023/01/06 08:53:02;;;;;;;;;;;6.60;99.90;;;;;;4864067;29;20403;-73
2023/01/06 08:55:40;;;;;;;;;;;6.70;99.90;;;;;;4859237;29;19972;-74
2023/01/06 08:58:06;;;;;;;;;;;6.70;99.90;;;;;;4842096;29;19932;-73
2023/01/06 09:00:42;;;;;;;;;;;6.70;99.90;;;;;;4862552;29;19963;-73
2023/01/06 09:03:07;;;;;;;;;;;6.70;99.90;;;;;;4863455;29;20328;-73
2023/01/06 09:05:33;;;;;;;;;;;6.70;99.90;;;;;;4861677;29;19927;-73
2023/01/06 09:07:58;;;;;;;;;;;6.80;99.90;;;;;;4845280;29;19939;-73
2023/01/06 09:10:24;;;;;;;;;;;6.80;99.90;;;;;;4847040;29;20492;-72
2023/01/06 09:12:50;;;;;;;;;;;6.90;99.90;;;;;;4841561;29;20151;-72
2023/01/06 09:15:15;;;;;;;;;;;6.90;99.90;;;;;;4858298;29;20365;-73
2023/01/06 09:17:41;;;;;;;;;;;6.90;99.90;;;;;;4852508;29;20311;-73
2023/01/06 09:20:07;;;;;;;;;;;7.00;99.90;;;;;;4862856;29;19928;-72
2023/01/06 09:22:33;;;;;;;;;;;7.10;99.90;;;;;;4860594;29;20409;-73
2023/01/06 09:24:58;;;;;;;;;;;7.20;99.90;;;;;;4843511;29;19939;-73
2023/01/06 09:27:24;;;;;;;;;;;7.30;99.90;;;;;;4847254;29;20597;-73
2023/01/06 09:29:55;;;;;;;;;;;7.30;99.90;;;;;;4833868;29;20165;-72
2023/01/06 09:32:21;;;;;;;;;;;7.40;99.90;;;;;;4859667;29;19928;-72
2023/01/06 09:34:47;;;;;;;;;;;7.40;99.90;;;;;;4860540;29;19928;-72
2023/01/06 09:37:12;;;;;;;;;;;7.50;99.90;;;;;;4859802;29;20441;-72
2023/01/06 09:39:38;;;;;;;;;;;7.60;99.90;;;;;;4861766;29;19934;-72
2023/01/06 09:42:23;;;;;;;;;;;7.70;99.90;;;;;;4843084;29;19931;-72
2023/01/06 09:45:07;;;;;;;;;;;7.80;99.90;;;;;;4858278;29;20007;-72
2023/01/06 09:47:35;;;;;;;;;;;7.80;99.90;;;;;;4859332;29;19933;-71
2023/01/06 09:50:37;;;;;;;;;;;7.80;99.90;;;;;;4849345;29;20384;-72
2023/01/06 09:53:05;;;;;;;;;;;7.80;99.90;;;;;;4788727;29;20736;-71
2023/01/06 09:55:33;;;;;;;;;;;7.80;99.90;;;;;;4833323;29;19981;-71
2023/01/06 09:58:10;;;;;;;;;;;7.80;99.90;;;;;;4828296;29;20401;-71
2023/01/06 10:00:53;;;;;;;;;;;7.80;99.90;;;;;;4842078;29;19931;-71
2023/01/06 10:03:23;;;;;;;;;;;7.80;99.90;;;;;;4848825;29;20313;-71
2023/01/06 10:05:48;;;;;;;;;;;7.90;99.90;;;;;;4865764;29;19947;-71
2023/01/06 10:08:17;;;;;;;;;;;7.90;99.90;;;;;;4860830;29;19928;-71
2023/01/06 10:10:49;;;;;;;;;;;7.90;99.90;;;;;;4861873;29;19934;-72
2023/01/06 10:13:24;;;;;;;;;;;7.90;99.90;;;;;;4845407;29;20012;-72
2023/01/06 10:16:08;;;;;;;;;;;7.90;99.90;;;;;;4842802;29;19924;-72
2023/01/06 10:18:39;;;;;;;;;;;7.90;99.90;;;;;;4859011;29;19928;-71
2023/01/06 10:21:09;;;;;;;;;;;8.00;99.90;;;;;;4842326;29;19943;-72
2023/01/06 10:23:43;;;;;;;;;;;8.00;99.90;;;;;;4839103;29;20435;-72
2023/01/06 10:26:15;;;;;;;;;;;8.00;99.90;;;;;;4857392;29;19976;-72
2023/01/06 10:28:41;;;;;;;;;;;8.00;99.90;;;;;;4860859;29;20006;-72
2023/01/06 10:31:10;;;;;;;;;;;8.00;99.90;;;;;;4859686;29;20015;-72
2023/01/06 10:33:49;;;;;;;;;;;8.00;99.90;;;;;;4844021;29;19958;-72
2023/01/06 10:36:16;;;;;;;;;;;8.00;99.90;;;;;;4858572;29;19928;-72
2023/01/06 10:38:52;;;;;;;;;;;8.00;99.90;;;;;;4859909;29;19979;-72
2023/01/06 10:41:17;;;;;;;;;;;8.00;99.90;;;;;;4859615;29;19927;-72
2023/01/06 10:43:43;;;;;;;;;;;8.00;99.90;;;;;;4859294;29;20045;-72
2023/01/06 10:46:08;;;;;;;;;;;8.00;99.90;;;;;;4844704;29;19935;-72
2023/01/06 10:48:34;;;;;;;;;;;8.00;99.90;;;;;;4845257;29;20506;-72
2023/01/06 10:51:16;;;;;;;;;;;8.10;99.90;;;;;;4860051;29;19928;-72
2023/01/06 10:53:42;;;;;;;;;;;8.10;99.90;;;;;;4858955;29;19935;-72
2023/01/06 10:56:08;;;;;;;;;;;8.10;99.90;;;;;;4857777;29;20305;-71
2023/01/06 10:58:36;;;;;;;;;;;8.10;99.90;;;;;;4841320;29;19923;-72
2023/01/06 11:01:15;;;;;;;;;;;8.20;99.90;;;;;;4857006;29;20411;-72
2023/01/06 11:03:41;;;;;;;;;;;8.20;99.90;;;;;;4857118;29;19931;-72
2023/01/06 11:06:09;;;;;;;;;;;8.30;99.90;;;;;;4858173;29;19935;-71
2023/01/06 11:08:35;;;;;;;;;;;8.30;99.90;;;;;;4849988;29;20529;-71
2023/01/06 11:11:01;;;;;;;;;;;8.30;99.90;;;;;;4857625;29;19924;-72
2023/01/06 11:13:31;;;;;;;;;;;8.40;99.90;;;;;;4850837;29;20320;-71
2023/01/06 11:16:17;;;;;;;;;;;8.40;99.90;;;;;;4851740;29;19928;-71
2023/01/06 11:18:49;;;;;;;;;;;8.40;99.90;;;;;;4854371;29;19991;-72
2023/01/06 11:21:17;;;;;;;;;;;8.50;99.90;;;;;;4856667;29;19930;-72
2023/01/06 11:23:44;;;;;;;;;;;8.40;99.90;;;;;;4841067;29;20528;-72
2023/01/06 11:26:15;;;;;;;;;;;8.50;99.90;;;;;;4854575;29;19932;-72
2023/01/06 11:28:41;;;;;;;;;;;8.50;99.90;;;;;;4848313;29;19927;-73
2023/01/06 11:31:13;;;;;;;;;;;8.50;99.90;;;;;;4850393;29;19979;-72
2023/01/06 11:33:50;;;;;;;;;;;8.60;99.90;;;;;;4855703;29;19994;-73
2023/01/06 11:36:16;;;;;;;;;;;8.60;99.90;;;;;;4841063;29;19928;-71
2023/01/06 11:38:44;;;;;;;;;;;8.60;99.90;;;;;;4860820;29;20273;-72
2023/01/06 11:41:10;;;;;;;;;;;8.60;99.90;;;;;;4877132;29;19991;-73
2023/01/06 11:43:38;;;;;;;;;;;8.60;99.90;;;;;;4861304;29;19976;-72
2023/01/06 11:46:05;;;;;;;;;;;8.60;99.90;;;;;;4860234;29;20011;-71
2023/01/06 11:48:48;;;;;;;;;;;8.60;99.90;;;;;;4860359;29;19971;-72
2023/01/06 11:51:14;;;;;;;;;;;8.60;99.90;;;;;;4859527;29;19923;-72
2023/01/06 11:53:54;;;;;;;;;;;8.60;99.90;;;;;;4861871;29;20380;-72
2023/01/06 11:56:19;;;;;;;;;;;8.60;99.90;;;;;;4862225;29;20030;-72
2023/01/06 11:58:53;;;;;;;;;;;8.70;99.90;;;;;;4859648;29;20439;-72
2023/01/06 12:01:28;;;;;;;;;;;8.60;99.90;;;;;;4860812;29;21429;-73
2023/01/06 12:03:57;;;;;;;;;;;8.60;99.90;;;;;;4862146;29;20027;-72
2023/01/06 12:06:34;;;;;;;;;;;8.60;99.90;;;;;;4864819;29;20353;-72
2023/01/06 12:09:20;;;;;;;;;;;8.60;99.90;;;;;;4848795;29;20635;-72
2023/01/06 12:11:48;;;;;;;;;;;8.60;99.90;;;;;;4831284;29;19949;-72
2023/01/06 12:14:19;;;;;;;;;;;8.60;99.90;;;;;;4827900;29;19934;-72
2023/01/06 12:16:47;;;;;;;;;;;8.50;99.90;;;;;;4842883;29;20360;-72
2023/01/06 12:19:15;;;;;;;;;;;8.50;99.90;;;;;;4843297;29;19925;-72
2023/01/06 12:21:41;;;;;;;;;;;8.50;99.90;;;;;;4842434;29;19990;-73
2023/01/06 12:24:12;;;;;;;;;;;8.40;99.90;;;;;;4823923;29;19929;-72
2023/01/06 12:26:38;;;;;;;;;;;8.30;99.90;;;;;;4825264;29;20019;-73
2023/01/06 12:29:05;;;;;;;;;;;8.30;99.90;;;;;;4842583;29;19924;-72
2023/01/06 12:32:09;;;;;;;;;;;8.30;99.90;;;;;;4835976;29;20319;-72
2023/01/06 12:34:37;;;;;;;;;;;8.30;99.90;;;;;;4777708;29;20410;-72
2023/01/06 12:37:09;;;;;;;;;;;8.40;99.90;;;;;;4782004;29;19986;-73
2023/01/06 12:39:46;;;;;;;;;;;8.40;99.90;;;;;;4806412;29;19928;-73
2023/01/06 12:42:12;;;;;;;;;;;8.40;99.90;;;;;;4840256;29;20385;-72
2023/01/06 12:44:42;;;;;;;;;;;8.40;99.90;;;;;;4819581;29;19929;-72
2023/01/06 12:47:11;;;;;;;;;;;8.40;99.90;;;;;;4841038;29;20059;-72
2023/01/06 12:49:40;;;;;;;;;;;8.40;99.90;;;;;;4841395;29;19925;-73
2023/01/06 12:52:09;;;;;;;;;;;8.40;99.90;;;;;;4840812;29;19936;-72
2023/01/06 12:54:35;;;;;;;;;;;8.30;99.90;;;;;;4842957;29;19979;-72
2023/01/06 12:57:16;;;;;;;;;;;8.30;99.90;;;;;;4841134;29;19981;-72
2023/01/06 13:00:01;;;;;;;;;;;8.20;99.90;;;;;;4835645;29;19928;-72
2023/01/06 13:02:52;;;;;;;;;;;8.20;99.90;;;;;;4832526;29;19924;-72
2023/01/06 13:05:40;;;;;;;;;;;8.10;99.90;;;;;;4839105;29;20023;-73
2023/01/06 13:08:27;;;;;;;;;;;8.10;99.90;;;;;;4867485;29;19934;-73
2023/01/06 13:10:56;;;;;;;;;;;8.10;99.90;;;;;;4864827;29;20020;-73
2023/01/06 13:13:42;;;;;;;;;;;8.10;99.90;;;;;;4859573;29;19951;-73
2023/01/06 13:16:14;;;;;;;;;;;8.10;99.90;;;;;;4859866;29;19932;-73
2023/01/06 13:18:45;;;;;;;;;;;8.20;99.90;;;;;;4863650;29;19924;-73
2023/01/06 13:21:16;;;;;;;;;;;8.20;99.90;;;;;;4857130;29;19978;-73
2023/01/06 13:24:08;;;;;;;;;;;8.20;99.90;;;;;;4859069;29;19966;-73
2023/01/06 13:26:53;;;;;;;;;;;8.20;99.90;;;;;;4848805;29;19924;-73
2023/01/06 13:29:31;;;;;;;;;;;8.20;99.90;;;;;;4862345;29;19924;-73
2023/01/06 13:32:05;;;;;;;;;;;8.20;99.90;;;;;;4861598;29;19924;-73
2023/01/06 13:34:50;;;;;;;;;;;8.20;99.90;;;;;;4858043;29;20437;-73
2023/01/06 13:37:25;;;;;;;;;;;8.20;99.90;;;;;;4862793;29;19932;-73
2023/01/06 13:39:56;;;;;;;;;;;8.20;99.90;;;;;;4861708;29;19931;-72
2023/01/06 13:42:29;;;;;;;;;;;8.10;99.90;;;;;;4859497;29;19934;-72
2023/01/06 13:44:55;;;;;;;;;;;8.10;99.90;;;;;;4862715;29;19930;-72
2023/01/06 13:47:22;;;;;;;;;;;8.10;99.90;;;;;;4857258;29;19935;-72
2023/01/06 13:49:48;;;;;;;;;;;8.10;99.90;;;;;;4863244;29;19959;-73
2023/01/06 13:52:20;;;;;;;;;;;8.10;99.90;;;;;;4844470;29;20385;-73
2023/01/06 13:54:46;;;;;;;;;;;8.10;99.90;;;;;;4859493;29;20436;-73
2023/01/06 13:57:21;;;;;;;;;;;8.10;99.90;;;;;;4858295;29;19975;-73
2023/01/06 13:59:50;;;;;;;;;;;8.10;99.90;;;;;;4862197;29;20019;-73
2023/01/06 14:02:34;;;;;;;;;;;8.10;99.90;;;;;;4847697;29;20045;-73
2023/01/06 14:05:01;;;;;;;;;;;8.10;99.90;;;;;;4862866;29;19927;-73
2023/01/06 14:07:31;;;;;;;;;;;8.10;99.90;;;;;;4855827;29;19974;-73
2023/01/06 14:09:57;;;;;;;;;;;8.10;99.90;;;;;;4847302;29;19948;-73
2023/01/06 14:12:23;;;;;;;;;;;8.10;99.90;;;;;;4847424;29;19955;-73
2023/01/06 14:15:18;;;;;;;;;;;8.00;99.90;;;;;;4862651;29;19966;-73
2023/01/06 14:17:45;;;;;;;;;;;8.00;99.90;;;;;;4831009;29;19927;-73
2023/01/06 14:20:32;;;;;;;;;;;8.00;99.90;;;;;;4860905;29;19967;-73
2023/01/06 14:23:02;;;;;;;;;;;7.90;99.90;;;;;;4860923;29;19928;-73
2023/01/06 14:25:28;;;;;;;;;;;7.80;99.90;;;;;;4846969;29;19934;-73
2023/01/06 14:27:54;;;;;;;;;;;7.80;99.90;;;;;;4846279;29;20350;-73
2023/01/06 14:30:27;;;;;;;;;;;7.80;99.90;;;;;;4848020;29;19932;-73
2023/01/06 14:33:11;;;;;;;;;;;7.70;99.90;;;;;;4851216;29;20535;-72
2023/01/06 14:35:42;;;;;;;;;;;7.60;99.90;;;;;;4856347;29;20412;-73
2023/01/06 14:38:27;;;;;;;;;;;7.60;99.90;;;;;;4861324;29;19928;-73
2023/01/06 14:41:03;;;;;;;;;;;7.60;99.90;;;;;;4859897;29;19928;-73
2023/01/06 14:43:32;;;;;;;;;;;7.50;99.90;;;;;;4862719;29;20149;-73
2023/01/06 14:46:00;;;;;;;;;;;7.50;99.90;;;;;;4858578;29;19930;-73